createdAt,value
2023-05-21T00:00:22.437Z,18.40
2023-05-21T00:02:49.366Z,18.61
2023-05-21T00:05:18.293Z,18.70
2023-05-21T00:07:46.148Z,18.40
2023-05-21T00:10:12.952Z,18.25
2023-05-21T00:12:40.214Z,18.54
2023-05-21T00:15:07.934Z,18.45
2023-05-21T00:17:36.998Z,18.50
2023-05-21T00:20:08.806Z,18.75
2023-05-21T00:22:36.300Z,18.62
2023-05-21T00:25:03.794Z,18.22
2023-05-21T00:27:30.696Z,18.58
2023-05-21T00:29:57.450Z,18.51
2023-05-21T00:32:24.219Z,18.15
2023-05-21T00:34:50.839Z,18.23
2023-05-21T00:37:17.746Z,18.43
2023-05-21T00:39:44.622Z,18.50
2023-05-21T00:42:12.176Z,18.51
2023-05-21T00:44:39.573Z,18.45
2023-05-21T00:47:06.980Z,18.10
2023-05-21T00:49:33.671Z,18.22
2023-05-21T00:52:01.691Z,18.55
2023-05-21T00:54:30.479Z,18.49
2023-05-21T00:56:57.954Z,18.34
2023-05-21T00:59:24.598Z,18.63
2023-05-21T01:01:56.176Z,18.29
2023-05-21T01:04:23.792Z,18.42
2023-05-21T01:06:50.484Z,18.51
2023-05-21T01:09:17.216Z,18.40
2023-05-21T01:11:50.069Z,18.21
2023-05-21T01:14:20.387Z,18.25
2023-05-21T01:16:49.717Z,18.36
2023-05-21T01:19:19.632Z,18.11
2023-05-21T01:21:51.791Z,18.46
2023-05-21T01:24:19.217Z,18.32
2023-05-21T01:26:46.562Z,18.27
2023-05-21T01:29:14.514Z,18.30
2023-05-21T01:32:02.798Z,18.46
2023-05-21T01:34:34.924Z,18.45
2023-05-21T01:37:12.763Z,18.42
2023-05-21T01:39:46.962Z,18.64
2023-05-21T01:42:18.338Z,17.90
2023-05-21T01:44:46.266Z,18.36
2023-05-21T01:47:14.120Z,18.49
2023-05-21T01:49:41.269Z,18.16
2023-05-21T01:52:07.978Z,17.97
2023-05-21T01:54:34.550Z,18.20
2023-05-21T01:57:01.845Z,18.66
2023-05-21T01:59:29.954Z,18.44
2023-05-21T02:01:56.634Z,18.54
2023-05-21T02:04:23.239Z,18.17
2023-05-21T02:06:49.764Z,18.45
2023-05-21T02:09:16.761Z,17.93
2023-05-21T02:11:44.600Z,18.51
2023-05-21T02:14:13.973Z,18.36
2023-05-21T02:16:41.947Z,18.17
2023-05-21T02:19:10.447Z,18.23
2023-05-21T02:21:37.122Z,18.14
2023-05-21T02:24:03.910Z,18.01
2023-05-21T02:26:31.238Z,18.18
2023-05-21T02:28:58.212Z,17.82
2023-05-21T02:31:24.783Z,18.16
2023-05-21T02:33:51.561Z,18.03
2023-05-21T02:36:18.907Z,18.12
2023-05-21T02:38:46.765Z,17.98
2023-05-21T02:41:13.639Z,17.96
2023-05-21T02:43:40.318Z,18.40
2023-05-21T02:46:07.695Z,18.03
2023-05-21T02:48:34.403Z,18.22
2023-05-21T02:51:01.052Z,18.38
2023-05-21T02:53:27.806Z,18.48
2023-05-21T02:55:54.444Z,18.17
2023-05-21T02:58:23.530Z,18.06
2023-05-21T03:00:50.101Z,18.35
2023-05-21T03:03:16.952Z,18.16
2023-05-21T03:05:43.715Z,18.28
2023-05-21T03:08:10.329Z,18.29
2023-05-21T03:10:36.967Z,17.98
2023-05-21T03:13:06.427Z,17.94
2023-05-21T03:15:34.597Z,18.13
2023-05-21T03:18:01.716Z,17.95
2023-05-21T03:20:28.908Z,18.01
2023-05-21T03:22:55.741Z,18.10
2023-05-21T03:25:25.104Z,18.25
2023-05-21T03:27:52.405Z,17.85
2023-05-21T03:30:19.018Z,17.98
2023-05-21T03:32:46.863Z,17.95
2023-05-21T03:35:13.635Z,18.09
2023-05-21T03:37:40.266Z,17.87
2023-05-21T03:40:07.894Z,17.79
2023-05-21T03:42:34.513Z,18.15
2023-05-21T03:45:01.152Z,18.21
2023-05-21T03:47:27.792Z,17.95
2023-05-21T03:49:55.639Z,18.14
2023-05-21T03:52:22.257Z,18.27
2023-05-21T03:54:48.903Z,18.06
2023-05-21T03:57:15.513Z,18.30
2023-05-21T03:59:42.152Z,18.29
2023-05-21T04:02:08.884Z,18.38
2023-05-21T04:04:35.723Z,17.98
2023-05-21T04:07:04.670Z,18.37
2023-05-21T04:09:31.408Z,18.39
2023-05-21T04:11:57.971Z,18.40
2023-05-21T04:14:24.633Z,18.22
2023-05-21T04:16:51.341Z,18.26
2023-05-21T04:19:17.987Z,18.10
2023-05-21T04:21:44.960Z,18.26
2023-05-21T04:24:11.888Z,18.15
2023-05-21T04:26:41.980Z,18.28
2023-05-21T04:29:10.094Z,18.48
2023-05-21T04:31:36.967Z,18.05
2023-05-21T04:34:04.145Z,18.39
2023-05-21T04:36:30.849Z,18.33
2023-05-21T04:38:57.432Z,18.38
2023-05-21T04:41:24.100Z,18.22
2023-05-21T04:43:55.344Z,18.19
2023-05-21T04:46:25.363Z,18.21
2023-05-21T04:48:55.369Z,18.44
2023-05-21T04:51:24.852Z,18.54
2023-05-21T04:53:52.019Z,18.41
2023-05-21T04:56:18.837Z,18.65
2023-05-21T04:58:47.786Z,18.71
2023-05-21T05:01:15.404Z,18.18
2023-05-21T05:03:42.037Z,18.44
2023-05-21T05:06:08.792Z,18.72
2023-05-21T05:08:35.653Z,18.35
2023-05-21T05:11:02.841Z,18.48
2023-05-21T05:13:29.697Z,18.51
2023-05-21T05:15:57.474Z,18.36
2023-05-21T05:18:24.190Z,18.77
2023-05-21T05:20:50.860Z,18.74
2023-05-21T05:23:17.912Z,18.51
2023-05-21T05:25:44.609Z,18.86
2023-05-21T05:28:11.709Z,18.72
2023-05-21T05:30:38.659Z,19.13
2023-05-21T05:33:05.443Z,18.93
2023-05-21T05:35:32.024Z,18.80
2023-05-21T05:37:58.568Z,18.75
2023-05-21T05:40:25.089Z,18.65
2023-05-21T05:42:52.723Z,18.50
2023-05-21T05:45:19.909Z,18.92
2023-05-21T05:47:46.955Z,18.92
2023-05-21T05:50:13.889Z,18.75
2023-05-21T05:52:40.414Z,18.74
2023-05-21T05:55:11.402Z,19.20
2023-05-21T05:57:38.020Z,19.05
2023-05-21T06:00:05.635Z,19.45
2023-05-21T06:02:32.496Z,19.33
2023-05-21T06:04:59.191Z,19.39
2023-05-21T06:07:26.100Z,19.36
2023-05-21T06:09:52.723Z,19.48
2023-05-21T06:12:19.495Z,19.51
2023-05-21T06:14:46.172Z,19.68
2023-05-21T06:17:12.964Z,19.70
2023-05-21T06:19:39.702Z,20.13
2023-05-21T06:22:06.405Z,20.22
2023-05-21T06:24:32.927Z,20.62
2023-05-21T06:26:59.503Z,20.44
2023-05-21T06:29:26.322Z,20.71
2023-05-21T06:31:53.590Z,20.87
2023-05-21T06:34:20.428Z,20.54
2023-05-21T06:36:48.246Z,20.68
2023-05-21T06:39:15.122Z,21.15
2023-05-21T06:41:41.841Z,21.49
2023-05-21T06:44:08.521Z,22.08
2023-05-21T06:46:35.850Z,22.40
2023-05-21T06:49:02.602Z,22.13
2023-05-21T06:51:29.500Z,23.79
2023-05-21T06:53:56.361Z,24.13
2023-05-21T06:56:23.077Z,24.41
2023-05-21T06:58:49.653Z,25.13
2023-05-21T07:01:16.514Z,25.80
2023-05-21T07:03:43.342Z,25.55
2023-05-21T07:06:10.241Z,25.95
2023-05-21T07:08:36.914Z,25.88
2023-05-21T07:11:03.619Z,25.61
2023-05-21T07:13:30.542Z,25.58
2023-05-21T07:15:57.148Z,25.28
2023-05-21T07:18:23.729Z,25.09
2023-05-21T07:20:50.653Z,25.41
2023-05-21T07:23:17.396Z,25.37
2023-05-21T07:25:43.989Z,25.37
2023-05-21T07:28:10.704Z,25.59
2023-05-21T07:30:37.979Z,25.84
2023-05-21T07:33:04.648Z,26.30
2023-05-21T07:35:31.383Z,26.99
2023-05-21T07:37:58.105Z,27.30
2023-05-21T07:40:25.215Z,27.30
2023-05-21T07:42:52.296Z,26.80
2023-05-21T07:45:18.976Z,26.95
2023-05-21T07:47:46.659Z,27.04
2023-05-21T07:50:14.749Z,26.83
2023-05-21T07:52:41.562Z,26.42
2023-05-21T07:55:09.191Z,26.52
2023-05-21T07:57:36.744Z,25.95
2023-05-21T08:00:07.339Z,26.32
2023-05-21T08:02:34.058Z,25.71
2023-05-21T08:05:01.866Z,26.17
2023-05-21T08:07:28.745Z,25.77
2023-05-21T08:09:55.369Z,25.68
2023-05-21T08:12:21.938Z,24.91
2023-05-21T08:14:48.633Z,25.12
2023-05-21T08:17:16.541Z,25.33
2023-05-21T08:19:43.231Z,25.29
2023-05-21T08:22:10.194Z,25.12
2023-05-21T08:24:36.963Z,25.33
2023-05-21T08:27:03.875Z,24.83
2023-05-21T08:29:30.721Z,25.50
2023-05-21T08:31:57.400Z,25.84
2023-05-21T08:34:24.511Z,26.55
2023-05-21T08:36:51.387Z,26.63
2023-05-21T08:39:18.244Z,26.88
2023-05-21T08:41:49.491Z,27.26
2023-05-21T08:44:21.904Z,27.77
2023-05-21T08:46:50.776Z,27.61
2023-05-21T08:49:21.857Z,29.24
2023-05-21T08:51:50.186Z,30.37
2023-05-21T08:54:16.850Z,31.26
2023-05-21T08:56:47.062Z,31.24
2023-05-21T08:59:14.179Z,31.22
2023-05-21T09:01:42.376Z,31.34
2023-05-21T09:04:20.263Z,31.21
2023-05-21T09:06:49.521Z,31.85
2023-05-21T09:09:25.523Z,32.13
2023-05-21T09:11:52.226Z,32.12
2023-05-21T09:14:19.608Z,31.54
2023-05-21T09:16:48.465Z,32.16
2023-05-21T09:19:15.268Z,32.01
2023-05-21T09:21:41.821Z,32.22
2023-05-21T09:24:10.088Z,32.51
2023-05-21T09:26:37.442Z,32.38
2023-05-21T09:29:04.121Z,31.66
2023-05-21T09:31:30.984Z,32.33
2023-05-21T09:33:57.719Z,33.12
2023-05-21T09:36:24.335Z,32.17
2023-05-21T09:38:51.993Z,32.59
2023-05-21T09:41:21.824Z,33.72
2023-05-21T09:43:49.190Z,33.08
2023-05-21T09:46:15.994Z,33.32
2023-05-21T09:48:43.313Z,33.53
2023-05-21T09:51:12.755Z,33.79
2023-05-21T09:53:57.968Z,32.27
2023-05-21T09:56:32.365Z,33.16
2023-05-21T09:59:02.859Z,32.73
2023-05-21T10:01:31.583Z,32.84
2023-05-21T10:04:01.817Z,32.48
2023-05-21T10:06:31.117Z,32.32
2023-05-21T10:09:04.837Z,32.32
2023-05-21T10:11:32.620Z,32.38
2023-05-21T10:14:20.151Z,33.33
2023-05-21T10:16:47.518Z,32.86
2023-05-21T10:19:16.078Z,33.32
2023-05-21T10:21:43.577Z,33.29
2023-05-21T10:24:10.919Z,32.30
2023-05-21T10:26:41.335Z,33.45
2023-05-21T10:29:08.134Z,32.87
2023-05-21T10:31:36.146Z,32.54
2023-05-21T10:34:05.019Z,33.05
2023-05-21T10:36:33.003Z,32.87
2023-05-21T10:39:00.721Z,33.12
2023-05-21T10:41:31.686Z,32.77
2023-05-21T10:44:10.584Z,32.59
2023-05-21T10:47:29.775Z,32.68
2023-05-21T10:50:39.710Z,33.86
2023-05-21T10:53:29.256Z,31.75
2023-05-21T10:55:59.029Z,32.03
2023-05-21T10:58:39.390Z,32.47
2023-05-21T11:01:07.304Z,32.31
2023-05-21T11:03:37.387Z,31.47
2023-05-21T11:06:08.633Z,32.04
2023-05-21T11:08:37.127Z,31.68
2023-05-21T11:11:04.440Z,31.86
2023-05-21T11:13:50.347Z,31.90
2023-05-21T11:16:17.768Z,32.13
2023-05-21T11:18:47.140Z,31.51
2023-05-21T11:21:16.979Z,31.21
2023-05-21T11:23:52.705Z,30.89
2023-05-21T11:26:27.699Z,31.64
2023-05-21T11:29:08.068Z,32.46
2023-05-21T11:31:39.160Z,32.42
2023-05-21T11:34:12.379Z,32.60
2023-05-21T11:36:40.400Z,32.86
2023-05-21T11:39:22.695Z,31.73
2023-05-21T11:41:59.823Z,32.14
2023-05-21T11:44:42.747Z,31.90
2023-05-21T11:47:12.484Z,32.22
2023-05-21T11:49:39.410Z,32.05
2023-05-21T11:52:07.952Z,31.92
2023-05-21T11:54:46.380Z,31.59
2023-05-21T11:57:17.411Z,32.28
2023-05-21T11:59:53.384Z,33.22
2023-05-21T12:02:23.275Z,33.11
2023-05-21T12:04:50.903Z,33.72
2023-05-21T12:07:19.539Z,33.48
2023-05-21T12:09:51.060Z,33.10
2023-05-21T12:12:21.654Z,32.61
2023-05-21T12:14:50.546Z,33.41
2023-05-21T12:17:24.850Z,33.26
2023-05-21T12:19:54.526Z,33.49
2023-05-21T12:22:21.710Z,34.58
2023-05-21T12:24:51.185Z,34.86
2023-05-21T12:27:18.534Z,34.03
2023-05-21T12:29:47.178Z,34.72
2023-05-21T12:32:14.942Z,34.24
2023-05-21T12:34:44.399Z,34.74
2023-05-21T12:37:32.613Z,34.65
2023-05-21T12:40:01.315Z,33.92
2023-05-21T12:42:30.820Z,33.61
2023-05-21T12:44:58.370Z,34.37
2023-05-21T12:47:26.804Z,35.60
2023-05-21T12:50:02.635Z,35.48
2023-05-21T12:52:30.915Z,35.16
2023-05-21T12:54:57.899Z,35.33
2023-05-21T12:57:28.045Z,34.43
2023-05-21T13:00:00.281Z,34.22
2023-05-21T13:02:29.297Z,34.30
2023-05-21T13:04:56.794Z,34.25
2023-05-21T13:07:26.132Z,35.45
2023-05-21T13:09:54.089Z,37.52
2023-05-21T13:12:22.400Z,37.23
2023-05-21T13:14:51.120Z,36.42
2023-05-21T13:17:18.968Z,37.60
2023-05-21T13:20:06.524Z,37.41
2023-05-21T13:22:39.230Z,36.08
2023-05-21T13:25:07.134Z,35.32
2023-05-21T13:27:34.010Z,35.56
2023-05-21T13:30:00.998Z,34.55
2023-05-21T13:32:28.406Z,34.22
2023-05-21T13:34:55.307Z,33.61
2023-05-21T13:37:22.109Z,32.50
2023-05-21T13:39:49.006Z,32.11
2023-05-21T13:42:15.892Z,31.78
2023-05-21T13:44:42.796Z,31.97
2023-05-21T13:47:12.052Z,31.67
2023-05-21T13:49:39.213Z,31.50
2023-05-21T13:52:07.027Z,31.94
2023-05-21T13:54:34.979Z,31.65
2023-05-21T13:57:02.092Z,32.00
2023-05-21T13:59:30.757Z,31.21
2023-05-21T14:01:59.587Z,31.98
2023-05-21T14:04:26.771Z,32.44
2023-05-21T14:06:53.595Z,30.99
2023-05-21T14:09:20.394Z,32.01
2023-05-21T14:11:48.501Z,31.14
2023-05-21T14:14:19.121Z,31.22
2023-05-21T14:16:47.146Z,31.83
2023-05-21T14:19:14.122Z,32.27
2023-05-21T14:21:41.390Z,32.41
2023-05-21T14:24:09.655Z,32.36
2023-05-21T14:26:39.975Z,32.83
2023-05-21T14:29:06.903Z,32.07
2023-05-21T14:31:33.511Z,31.83
2023-05-21T14:34:00.572Z,31.69
2023-05-21T14:36:27.193Z,31.19
2023-05-21T14:38:53.756Z,32.30
2023-05-21T14:41:23.784Z,31.80
2023-05-21T14:43:50.362Z,32.01
2023-05-21T14:46:17.254Z,31.59
2023-05-21T14:48:44.908Z,31.81
2023-05-21T14:51:12.455Z,31.68
2023-05-21T14:53:40.158Z,31.04
2023-05-21T14:56:09.928Z,31.01
2023-05-21T14:58:37.270Z,31.28
2023-05-21T15:01:06.752Z,30.68
2023-05-21T15:03:33.426Z,31.40
2023-05-21T15:06:00.419Z,31.93
2023-05-21T15:08:26.970Z,31.52
2023-05-21T15:10:53.512Z,31.30
2023-05-21T15:13:21.258Z,31.15
2023-05-21T15:15:48.298Z,31.88
2023-05-21T15:18:14.960Z,31.60
2023-05-21T15:20:41.551Z,31.19
2023-05-21T15:23:16.643Z,31.19
2023-05-21T15:25:45.128Z,31.14
2023-05-21T15:28:12.235Z,31.02
2023-05-21T15:30:39.164Z,30.98
2023-05-21T15:33:05.812Z,31.22
2023-05-21T15:35:32.653Z,31.68
2023-05-21T15:37:59.472Z,31.48
2023-05-21T15:40:27.120Z,31.34
2023-05-21T15:42:54.304Z,31.20
2023-05-21T15:45:20.989Z,31.34
2023-05-21T15:47:47.729Z,31.42
2023-05-21T15:50:14.599Z,31.15
2023-05-21T15:52:42.472Z,31.17
2023-05-21T15:55:09.762Z,31.55
2023-05-21T15:57:36.384Z,31.11
2023-05-21T16:00:05.064Z,30.38
2023-05-21T16:02:32.066Z,30.82
2023-05-21T16:04:59.100Z,30.96
2023-05-21T16:07:25.815Z,31.66
2023-05-21T16:09:52.450Z,31.08
2023-05-21T16:12:19.118Z,30.93
2023-05-21T16:14:49.826Z,31.03
2023-05-21T16:17:16.861Z,30.88
2023-05-21T16:19:43.558Z,30.58
2023-05-21T16:22:10.858Z,31.46
2023-05-21T16:24:37.910Z,31.39
2023-05-21T16:27:05.074Z,31.24
2023-05-21T16:29:31.929Z,30.64
2023-05-21T16:31:58.720Z,31.03
2023-05-21T16:34:25.787Z,31.20
2023-05-21T16:36:52.736Z,30.74
2023-05-21T16:39:20.116Z,30.20
2023-05-21T16:41:47.080Z,30.60
2023-05-21T16:44:14.562Z,30.53
2023-05-21T16:46:41.321Z,31.08
2023-05-21T16:49:08.155Z,30.81
2023-05-21T16:51:34.793Z,30.95
2023-05-21T16:54:04.096Z,31.23
2023-05-21T16:56:31.488Z,30.84
2023-05-21T16:58:58.416Z,30.84
2023-05-21T17:01:25.433Z,31.20
2023-05-21T17:03:52.981Z,31.31
2023-05-21T17:06:20.070Z,31.81
2023-05-21T17:08:47.247Z,32.23
2023-05-21T17:11:14.001Z,31.70
2023-05-21T17:13:41.793Z,31.01
2023-05-21T17:16:08.741Z,30.59
2023-05-21T17:18:35.474Z,30.36
2023-05-21T17:21:02.148Z,30.78
2023-05-21T17:23:28.868Z,31.06
2023-05-21T17:25:55.572Z,31.22
2023-05-21T17:28:22.358Z,31.43
2023-05-21T17:30:49.864Z,31.27
2023-05-21T17:33:16.838Z,30.94
2023-05-21T17:35:43.769Z,30.38
2023-05-21T17:38:10.567Z,30.83
2023-05-21T17:40:37.326Z,30.60
2023-05-21T17:43:04.844Z,30.84
2023-05-21T17:45:31.530Z,30.96
2023-05-21T17:48:00.198Z,30.56
2023-05-21T17:50:27.849Z,30.70
2023-05-21T17:52:55.562Z,30.57
2023-05-21T17:55:22.283Z,30.21
2023-05-21T17:57:48.989Z,29.97
2023-05-21T18:00:15.939Z,30.24
2023-05-21T18:02:42.798Z,30.41
2023-05-21T18:05:09.490Z,30.37
2023-05-21T18:07:37.351Z,30.55
2023-05-21T18:10:04.511Z,30.70
2023-05-21T18:12:31.335Z,30.15
2023-05-21T18:14:58.166Z,30.34
2023-05-21T18:17:24.882Z,30.25
2023-05-21T18:19:51.719Z,30.37
2023-05-21T18:22:18.408Z,30.14
2023-05-21T18:24:46.290Z,30.18
2023-05-21T18:27:13.564Z,29.88
2023-05-21T18:29:40.412Z,29.84
2023-05-21T18:32:09.091Z,29.86
2023-05-21T18:34:35.889Z,29.78
2023-05-21T18:37:02.530Z,29.62
2023-05-21T18:39:29.354Z,29.60
2023-05-21T18:42:11.364Z,29.32
2023-05-21T18:44:39.450Z,29.04
2023-05-21T18:47:07.766Z,28.93
2023-05-21T18:49:35.836Z,28.87
2023-05-21T18:52:03.688Z,28.63
2023-05-21T18:54:30.354Z,28.62
2023-05-21T18:57:00.708Z,28.52
2023-05-21T18:59:28.599Z,28.28
2023-05-21T19:01:55.767Z,28.25
2023-05-21T19:04:22.870Z,27.98
2023-05-21T19:06:49.881Z,27.82
2023-05-21T19:09:16.534Z,27.69
2023-05-21T19:11:44.765Z,27.43
2023-05-21T19:14:12.975Z,27.27
2023-05-21T19:16:39.720Z,27.27
2023-05-21T19:19:06.628Z,27.19
2023-05-21T19:21:36.491Z,27.10
2023-05-21T19:24:06.026Z,27.06
2023-05-21T19:26:33.726Z,26.94
2023-05-21T19:29:01.007Z,26.83
2023-05-21T19:31:28.761Z,26.73
2023-05-21T19:33:55.647Z,26.73
2023-05-21T19:36:22.617Z,26.62
2023-05-21T19:38:50.987Z,26.55
2023-05-21T19:41:18.740Z,26.32
2023-05-21T19:43:48.107Z,26.42
2023-05-21T19:46:19.090Z,26.34
2023-05-21T19:48:47.190Z,26.31
2023-05-21T19:51:13.761Z,26.18
2023-05-21T19:53:40.482Z,26.12
2023-05-21T19:56:08.263Z,26.05
2023-05-21T19:58:35.185Z,25.96
2023-05-21T20:01:03.349Z,26.00
2023-05-21T20:03:36.095Z,25.96
2023-05-21T20:06:04.741Z,25.84
2023-05-21T20:08:31.527Z,25.69
2023-05-21T20:10:59.687Z,25.78
2023-05-21T20:13:27.793Z,25.73
2023-05-21T20:15:54.387Z,25.59
2023-05-21T20:18:22.152Z,25.49
2023-05-21T20:20:51.898Z,25.54
2023-05-21T20:23:19.120Z,25.43
2023-05-21T20:25:45.727Z,25.39
2023-05-21T20:28:15.731Z,25.42
2023-05-21T20:30:54.421Z,25.31
2023-05-21T20:33:23.216Z,25.31
2023-05-21T20:35:49.794Z,25.17
2023-05-21T20:38:17.175Z,25.16
2023-05-21T20:40:44.688Z,25.12
2023-05-21T20:43:15.270Z,25.09
2023-05-21T20:45:46.433Z,25.07
2023-05-21T20:48:14.381Z,25.13
2023-05-21T20:50:41.874Z,25.03
2023-05-21T20:53:08.632Z,25.02
2023-05-21T20:55:35.805Z,25.12
2023-05-21T20:58:03.920Z,25.01
2023-05-21T21:00:33.576Z,25.03
2023-05-21T21:03:01.806Z,25.09
2023-05-21T21:05:28.530Z,25.01
2023-05-21T21:07:56.108Z,24.97
2023-05-21T21:10:22.929Z,24.93
2023-05-21T21:12:49.614Z,24.98
2023-05-21T21:15:16.356Z,24.91
2023-05-21T21:17:43.148Z,24.97
2023-05-21T21:20:10.725Z,25.05
2023-05-21T21:22:37.418Z,24.83
2023-05-21T21:25:04.426Z,24.75
2023-05-21T21:27:31.355Z,24.75
2023-05-21T21:29:57.967Z,24.82
2023-05-21T21:32:25.987Z,24.91
2023-05-21T21:34:52.645Z,24.84
2023-05-21T21:37:19.302Z,24.85
2023-05-21T21:39:45.929Z,24.90
2023-05-21T21:42:12.572Z,24.80
2023-05-21T21:44:39.650Z,24.71
2023-05-21T21:47:06.526Z,24.72
2023-05-21T21:49:33.073Z,24.75
2023-05-21T21:51:59.874Z,24.62
2023-05-21T21:54:27.768Z,24.67
2023-05-21T21:56:54.546Z,24.10
2023-05-21T21:59:22.473Z,24.38
2023-05-21T22:01:49.274Z,24.54
2023-05-21T22:04:16.519Z,24.47
2023-05-21T22:06:45.500Z,24.40
2023-05-21T22:09:12.414Z,24.39
2023-05-21T22:11:39.560Z,24.39
2023-05-21T22:14:06.226Z,24.34
2023-05-21T22:16:36.528Z,24.36
2023-05-21T22:19:03.662Z,24.01
2023-05-21T22:21:32.890Z,24.15
2023-05-21T22:24:00.195Z,24.14
2023-05-21T22:26:26.855Z,24.12
2023-05-21T22:28:53.630Z,24.25
2023-05-21T22:31:20.474Z,24.20
2023-05-21T22:33:48.748Z,24.11
2023-05-21T22:36:15.373Z,24.06
2023-05-21T22:38:43.528Z,23.93
2023-05-21T22:41:12.237Z,24.00
2023-05-21T22:43:39.177Z,23.66
2023-05-21T22:46:06.045Z,23.88
2023-05-21T22:48:34.425Z,23.78
2023-05-21T22:51:01.655Z,23.81
2023-05-21T22:53:32.256Z,23.88
2023-05-21T22:55:58.881Z,23.80
2023-05-21T22:58:25.724Z,23.74
2023-05-21T23:00:52.400Z,23.78
2023-05-21T23:03:19.050Z,23.65
2023-05-21T23:05:46.170Z,23.52
2023-05-21T23:08:13.268Z,23.63
2023-05-21T23:10:40.075Z,23.57
2023-05-21T23:13:06.985Z,23.56
2023-05-21T23:15:33.766Z,23.61
2023-05-21T23:18:01.455Z,23.55
2023-05-21T23:20:28.242Z,23.43
2023-05-21T23:22:54.745Z,23.46
2023-05-21T23:25:21.338Z,23.45
2023-05-21T23:27:48.068Z,23.37
2023-05-21T23:30:14.857Z,23.37
2023-05-21T23:32:41.492Z,23.39
2023-05-21T23:35:11.616Z,23.28
2023-05-21T23:37:38.286Z,23.36
2023-05-21T23:40:05.420Z,23.25
2023-05-21T23:42:32.315Z,23.34
2023-05-21T23:44:58.928Z,23.24
2023-05-21T23:47:25.907Z,23.02
2023-05-21T23:49:53.024Z,22.95
2023-05-21T23:52:19.701Z,23.06
2023-05-21T23:54:46.448Z,23.02
2023-05-21T23:57:13.380Z,23.15
2023-05-21T23:59:39.994Z,23.09
